Time;durP1;ratioP1;P1;durP2;ratioP2;P2;SDS_P1;SDS_P2;PMS_P1;PMS_P2;Temp;Humidity;BMP_temperature;BMP_pressure;BME280_temperature;BME280_humidity;BME280_pressure;Samples;Min_cycle;Max_cycle;Signal;HPM_P1;HPM_P2
2021/08/02 00:01:05;;;;;;;11.60;6.25;;;15.60;90.30;;;;;;5085816;28;20411;-81
2021/08/02 00:03:50;;;;;;;7.88;5.25;;;15.70;90.10;;;;;;5070395;28;20430;-84
2021/08/02 00:06:24;;;;;;;8.33;5.73;;;15.70;90.00;;;;;;5085762;28;20474;-81
2021/08/02 00:09:05;;;;;;;8.27;5.65;;;15.60;90.20;;;;;;5070126;28;20430;-83
2021/08/02 00:12:04;;;;;;;9.15;5.70;;;15.60;90.20;;;;;;5054586;28;20729;-83
2021/08/02 00:14:31;;;;;;;11.35;6.22;;;15.60;90.10;;;;;;5059090;28;20896;-81
2021/08/02 00:16:57;;;;;;;7.87;5.07;;;15.50;90.60;;;;;;5073909;28;20936;-81
2021/08/02 00:19:24;;;;;;;10.90;6.35;;;15.50;90.60;;;;;;5073749;28;20699;-81
2021/08/02 00:21:50;;;;;;;9.73;6.20;;;15.40;91.10;;;;;;5073741;28;20602;-81
2021/08/02 00:24:18;;;;;;;10.07;6.07;;;15.50;91.00;;;;;;5073495;28;20871;-84
2021/08/02 00:26:43;;;;;;;11.50;6.38;;;15.50;90.70;;;;;;5089194;28;20417;-81
2021/08/02 00:29:09;;;;;;;10.53;6.77;;;15.40;90.90;;;;;;5073738;28;20469;-81
2021/08/02 00:31:36;;;;;;;13.50;6.90;;;15.40;90.90;;;;;;5073488;28;20860;-80
2021/08/02 00:34:03;;;;;;;13.43;7.50;;;15.50;90.80;;;;;;5089043;28;20390;-83
2021/08/02 00:36:44;;;;;;;13.45;8.35;;;15.40;91.20;;;;;;5088926;28;20792;-81
2021/08/02 00:39:32;;;;;;;14.20;8.00;;;15.50;91.10;;;;;;5073580;28;20407;-83
2021/08/02 00:42:18;;;;;;;14.77;8.85;;;15.40;91.60;;;;;;5073283;28;20388;-81
2021/08/02 00:45:12;;;;;;;16.67;9.55;;;15.40;91.90;;;;;;5073225;28;20382;-84
2021/08/02 00:47:56;;;;;;;18.88;9.05;;;15.30;91.90;;;;;;5088936;28;20460;-80
2021/08/02 00:50:24;;;;;;;19.85;10.07;;;15.40;91.90;;;;;;5073588;28;20917;-81
2021/08/02 00:53:01;;;;;;;15.02;8.90;;;15.30;92.20;;;;;;5073057;28;20852;-80
2021/08/02 00:55:30;;;;;;;15.05;9.23;;;15.30;91.90;;;;;;5073324;28;20376;-81
2021/08/02 00:58:00;;;;;;;18.52;9.73;;;15.20;92.30;;;;;;5055316;28;20681;-80
2021/08/02 01:00:25;;;;;;;18.98;10.07;;;15.10;92.90;;;;;;5088753;28;20380;-81
2021/08/02 01:02:52;;;;;;;19.38;10.00;;;15.10;92.70;;;;;;5073206;28;20429;-81
2021/08/02 01:05:19;;;;;;;16.75;9.45;;;15.10;92.50;;;;;;5054994;28;20863;-81
2021/08/02 01:08:08;;;;;;;19.20;8.73;;;15.00;92.80;;;;;;5088655;28;20384;-81
2021/08/02 01:10:36;;;;;;;14.68;8.35;;;15.00;92.40;;;;;;5073069;28;20866;-81
2021/08/02 01:13:05;;;;;;;15.27;7.73;;;14.90;92.50;;;;;;5073344;28;20471;-81
2021/08/02 01:15:31;;;;;;;16.15;7.90;;;15.10;91.90;;;;;;5054552;28;20380;-80
2021/08/02 01:17:57;;;;;;;13.57;7.60;;;14.90;91.30;;;;;;5072780;28;20376;-80
2021/08/02 01:20:23;;;;;;;11.93;6.55;;;14.90;91.70;;;;;;5072682;28;20376;-81
2021/08/02 01:22:49;;;;;;;13.30;6.50;;;15.00;91.40;;;;;;5071976;28;20466;-83
2021/08/02 01:25:33;;;;;;;14.43;6.68;;;15.00;91.10;;;;;;5088262;28;20411;-83
2021/08/02 01:28:14;;;;;;;11.48;6.03;;;15.00;91.10;;;;;;5072523;28;20372;-83
2021/08/02 01:30:52;;;;;;;9.50;5.97;;;14.80;91.10;;;;;;5072304;28;20427;-81
2021/08/02 01:33:20;;;;;;;10.45;5.38;;;14.90;90.80;;;;;;5072417;28;20380;-82
2021/08/02 01:35:46;;;;;;;9.65;5.40;;;14.90;90.50;;;;;;5072096;28;20521;-84
2021/08/02 01:38:12;;;;;;;8.93;5.00;;;14.80;90.80;;;;;;5072353;28;20404;-82
2021/08/02 01:40:38;;;;;;;7.80;5.00;;;14.80;90.60;;;;;;5087743;28;20868;-83
2021/08/02 01:43:06;;;;;;;9.53;4.90;;;14.80;90.30;;;;;;5072163;28;20387;-81
2021/08/02 01:45:48;;;;;;;10.10;4.55;;;14.80;90.10;;;;;;5072185;28;20383;-81
2021/08/02 01:48:23;;;;;;;7.75;4.50;;;14.90;90.10;;;;;;5054075;28;20953;-82
2021/08/02 01:51:19;;;;;;;10.07;4.43;;;14.90;90.10;;;;;;5071569;28;20399;-81
2021/08/02 01:53:51;;;;;;;10.98;5.25;;;14.60;90.20;;;;;;5071970;28;20387;-81
2021/08/02 01:56:18;;;;;;;8.10;4.65;;;14.60;90.80;;;;;;5071728;28;20653;-81
2021/08/02 01:59:05;;;;;;;10.30;4.60;;;14.70;90.50;;;;;;5071667;28;20462;-86
2021/08/02 02:01:32;;;;;;;7.97;4.28;;;14.80;90.30;;;;;;5071899;28;20391;-82
2021/08/02 02:04:01;;;;;;;7.97;4.30;;;14.80;90.20;;;;;;5071717;28;20380;-81
2021/08/02 02:06:32;;;;;;;12.15;5.90;;;14.80;89.80;;;;;;5071603;28;20372;-81
2021/08/02 02:09:07;;;;;;;8.95;6.05;;;14.60;89.80;;;;;;5053784;28;20380;-81
2021/08/02 02:11:37;;;;;;;10.43;6.28;;;14.50;90.80;;;;;;5071649;28;20404;-81
2021/08/02 02:14:06;;;;;;;13.83;7.77;;;14.60;90.10;;;;;;5053553;28;20470;-84
2021/08/02 02:16:32;;;;;;;12.15;8.50;;;14.60;89.90;;;;;;5071414;28;20537;-81
2021/08/02 02:19:03;;;;;;;10.85;6.90;;;14.70;89.80;;;;;;5053447;28;20912;-83
2021/08/02 02:21:30;;;;;;;16.92;8.30;;;14.60;89.70;;;;;;5071275;28;20379;-82
2021/08/02 02:23:57;;;;;;;12.50;8.00;;;14.60;89.60;;;;;;5053376;28;20384;-82
2021/08/02 02:26:32;;;;;;;13.77;8.32;;;14.60;89.60;;;;;;5071209;28;20376;-82
2021/08/02 02:29:03;;;;;;;15.10;8.88;;;14.50;89.70;;;;;;5071368;28;20368;-81
2021/08/02 02:31:31;;;;;;;11.50;7.50;;;14.50;89.90;;;;;;5071128;28;20477;-82
2021/08/02 02:34:01;;;;;;;15.27;8.13;;;14.50;89.60;;;;;;5085768;28;20388;-83
2021/08/02 02:36:28;;;;;;;11.75;7.03;;;14.60;89.40;;;;;;5053149;28;20410;-82
2021/08/02 02:38:54;;;;;;;9.95;6.97;;;14.40;89.60;;;;;;5071564;28;20756;-84
2021/08/02 02:41:21;;;;;;;8.57;5.72;;;14.60;89.40;;;;;;5071006;28;20414;-81
2021/08/02 02:43:49;;;;;;;10.73;5.30;;;14.50;89.50;;;;;;5053049;28;20376;-81
2021/08/02 02:46:19;;;;;;;8.48;4.88;;;14.60;89.60;;;;;;5052739;28;20441;-84
2021/08/02 02:48:46;;;;;;;12.15;4.63;;;14.60;89.50;;;;;;5086653;28;20394;-81
2021/08/02 02:51:12;;;;;;;6.55;4.22;;;14.60;89.60;;;;;;5071054;28;20410;-81
2021/08/02 02:53:40;;;;;;;6.15;4.10;;;14.60;89.50;;;;;;5070833;28;20497;-83
2021/08/02 02:56:08;;;;;;;7.47;3.60;;;14.60;89.50;;;;;;5086439;28;20760;-80
2021/08/02 02:58:38;;;;;;;7.07;3.92;;;14.60;89.50;;;;;;5070830;28;20379;-82
2021/08/02 03:01:05;;;;;;;6.80;3.60;;;14.60;89.60;;;;;;5070510;28;20463;-81
2021/08/02 03:03:34;;;;;;;9.15;4.25;;;14.60;89.80;;;;;;5086194;28;20415;-82
2021/08/02 03:06:01;;;;;;;9.65;3.88;;;14.60;89.90;;;;;;5070791;28;20429;-81
2021/08/02 03:08:27;;;;;;;6.35;3.78;;;14.60;89.70;;;;;;5070635;28;20767;-83
2021/08/02 03:10:54;;;;;;;6.85;3.63;;;14.50;89.90;;;;;;5070594;28;20744;-83
2021/08/02 03:13:21;;;;;;;7.32;3.60;;;14.50;89.90;;;;;;5070330;28;20905;-81
2021/08/02 03:15:46;;;;;;;7.57;3.92;;;14.40;90.10;;;;;;5070679;28;20368;-81
2021/08/02 03:18:12;;;;;;;11.63;3.55;;;14.30;90.70;;;;;;5086161;28;20418;-81
2021/08/02 03:20:39;;;;;;;10.82;3.58;;;14.30;90.70;;;;;;5086070;28;20391;-82
2021/08/02 03:23:16;;;;;;;8.60;3.40;;;14.30;90.70;;;;;;5052507;28;20387;-83
2021/08/02 03:25:48;;;;;;;8.85;4.15;;;14.40;90.50;;;;;;5052613;28;21017;-83
2021/08/02 03:28:22;;;;;;;11.90;4.00;;;14.50;90.60;;;;;;5052527;28;20395;-83
2021/08/02 03:30:50;;;;;;;6.93;3.85;;;14.40;90.50;;;;;;5070601;28;20407;-81
2021/08/02 03:33:21;;;;;;;7.50;4.30;;;14.40;90.40;;;;;;5052372;28;20728;-81
2021/08/02 03:35:49;;;;;;;8.68;4.07;;;14.40;90.30;;;;;;5070612;28;20384;-81
2021/08/02 03:38:16;;;;;;;7.87;3.80;;;14.40;90.30;;;;;;5070423;28;20492;-81
2021/08/02 03:40:46;;;;;;;9.02;3.70;;;14.40;90.40;;;;;;5052495;28;20391;-82
2021/08/02 03:43:13;;;;;;;7.50;4.30;;;14.40;90.20;;;;;;5085599;28;20379;-81
2021/08/02 03:45:42;;;;;;;10.07;3.78;;;14.30;90.20;;;;;;5071615;28;20380;-82
2021/08/02 03:48:09;;;;;;;12.68;4.13;;;14.30;90.50;;;;;;5074570;28;20402;-81
2021/08/02 03:50:34;;;;;;;8.15;4.13;;;14.20;90.70;;;;;;5074026;28;20399;-81
2021/08/02 03:53:00;;;;;;;8.20;4.40;;;14.30;90.70;;;;;;5074131;28;20380;-82
2021/08/02 03:55:29;;;;;;;10.27;4.20;;;14.30;90.60;;;;;;5056263;28;20466;-82
2021/08/02 03:57:55;;;;;;;9.98;3.95;;;14.40;90.80;;;;;;5089718;28;20380;-81
2021/08/02 04:00:21;;;;;;;13.27;4.57;;;14.40;90.70;;;;;;5073954;28;20376;-82
2021/08/02 04:02:51;;;;;;;5.70;3.85;;;14.40;90.40;;;;;;5074004;28;20406;-81
2021/08/02 04:05:17;;;;;;;7.28;3.95;;;14.40;90.30;;;;;;5074034;28;20386;-82
2021/08/02 04:07:44;;;;;;;7.18;4.43;;;14.30;90.40;;;;;;5055698;28;20391;-81
2021/08/02 04:10:10;;;;;;;9.52;3.60;;;14.40;90.40;;;;;;5073833;28;20371;-81
2021/08/02 04:12:36;;;;;;;8.32;3.97;;;14.40;90.40;;;;;;5074056;28;20433;-81
2021/08/02 04:15:02;;;;;;;13.32;3.72;;;14.40;90.30;;;;;;5089335;28;20852;-81
2021/08/02 04:17:27;;;;;;;12.07;4.22;;;14.40;90.30;;;;;;5073277;28;20867;-81
2021/08/02 04:19:53;;;;;;;10.60;4.43;;;14.40;90.30;;;;;;5073743;28;20429;-81
2021/08/02 04:22:18;;;;;;;6.87;4.10;;;14.50;90.20;;;;;;5089015;28;20406;-85
2021/08/02 04:24:44;;;;;;;9.90;4.07;;;14.40;90.40;;;;;;5073509;28;20380;-81
2021/08/02 04:27:09;;;;;;;6.17;3.67;;;14.40;90.30;;;;;;5073563;28;20390;-81
2021/08/02 04:29:35;;;;;;;7.93;4.23;;;14.40;90.40;;;;;;5073397;28;20403;-82
2021/08/02 04:32:01;;;;;;;7.72;4.00;;;14.40;90.50;;;;;;5073146;28;20407;-81
2021/08/02 04:34:26;;;;;;;7.07;3.80;;;14.50;90.50;;;;;;5073153;28;20472;-81
2021/08/02 04:36:52;;;;;;;11.63;4.50;;;14.50;90.70;;;;;;5073614;28;20592;-81
2021/08/02 04:39:18;;;;;;;6.47;3.65;;;14.40;90.70;;;;;;5088707;28;20928;-82
2021/08/02 04:41:43;;;;;;;9.63;3.83;;;14.40;90.50;;;;;;5073369;28;20390;-81
2021/08/02 04:44:09;;;;;;;8.85;3.83;;;14.50;90.50;;;;;;5055088;28;20743;-82
2021/08/02 04:46:35;;;;;;;9.02;4.00;;;14.50;90.50;;;;;;5073144;28;20372;-83
2021/08/02 04:49:00;;;;;;;7.60;3.73;;;14.40;90.60;;;;;;5073135;28;20383;-81
2021/08/02 04:51:26;;;;;;;8.93;4.20;;;14.50;90.50;;;;;;5055117;28;20492;-81
2021/08/02 04:53:52;;;;;;;10.27;4.50;;;14.40;90.60;;;;;;5072781;28;20379;-81
2021/08/02 04:56:17;;;;;;;9.48;5.03;;;14.40;90.90;;;;;;5073159;28;20404;-83
2021/08/02 04:58:43;;;;;;;7.63;3.60;;;14.30;91.20;;;;;;5072122;28;20372;-81
2021/08/02 05:01:08;;;;;;;10.30;3.90;;;14.30;91.40;;;;;;5054935;28;20883;-81
2021/08/02 05:03:34;;;;;;;9.27;4.30;;;14.20;91.70;;;;;;5072838;28;20409;-82
2021/08/02 05:05:59;;;;;;;9.10;3.67;;;14.20;91.50;;;;;;5088468;28;20454;-81
2021/08/02 05:08:25;;;;;;;9.27;3.55;;;14.30;91.20;;;;;;5088248;28;20398;-81
2021/08/02 05:10:50;;;;;;;6.87;3.60;;;14.30;91.00;;;;;;5054711;28;20453;-81
2021/08/02 05:13:16;;;;;;;10.87;4.20;;;14.40;90.80;;;;;;5072515;28;20386;-82
2021/08/02 05:15:42;;;;;;;6.80;3.67;;;14.40;90.80;;;;;;5072938;28;20457;-81
2021/08/02 05:18:07;;;;;;;7.93;3.88;;;14.40;90.70;;;;;;5072441;28;20384;-80
2021/08/02 05:20:33;;;;;;;7.63;3.95;;;14.50;90.70;;;;;;5072511;28;20382;-81
2021/08/02 05:22:58;;;;;;;9.73;3.90;;;14.40;90.90;;;;;;5072464;28;20687;-81
2021/08/02 05:25:24;;;;;;;13.20;4.13;;;14.40;91.10;;;;;;5088066;28;20380;-81
2021/08/02 05:27:51;;;;;;;8.98;4.05;;;14.20;92.00;;;;;;5072362;28;20832;-83
2021/08/02 05:30:18;;;;;;;8.68;4.25;;;14.30;91.80;;;;;;5054354;28;20380;-81
2021/08/02 05:32:44;;;;;;;8.48;3.63;;;14.30;91.80;;;;;;5088058;28;20388;-81
2021/08/02 05:35:11;;;;;;;7.57;3.80;;;14.40;91.80;;;;;;5072186;28;20804;-83
2021/08/02 05:37:36;;;;;;;9.60;4.20;;;14.40;91.60;;;;;;5054017;28;20431;-80
2021/08/02 05:40:03;;;;;;;10.88;4.05;;;14.40;91.60;;;;;;5072144;28;20414;-81
2021/08/02 05:42:29;;;;;;;8.02;4.43;;;14.30;91.50;;;;;;5072139;28;20716;-82
2021/08/02 05:44:55;;;;;;;8.18;4.22;;;14.40;91.80;;;;;;5087480;28;20385;-81
2021/08/02 05:47:20;;;;;;;10.03;4.30;;;14.10;92.40;;;;;;5072054;28;20419;-81
2021/08/02 05:49:45;;;;;;;9.25;4.38;;;14.10;92.90;;;;;;5071916;28;20372;-83
2021/08/02 05:52:11;;;;;;;9.20;4.03;;;14.10;92.80;;;;;;5071530;28;20412;-83
2021/08/02 05:54:37;;;;;;;9.90;4.20;;;14.20;92.40;;;;;;5071786;28;20395;-81
2021/08/02 05:57:02;;;;;;;10.07;4.45;;;14.30;92.00;;;;;;5071810;28;20446;-81
2021/08/02 05:59:29;;;;;;;11.65;4.40;;;14.30;92.10;;;;;;5087307;28;20380;-83
2021/08/02 06:01:58;;;;;;;8.88;4.05;;;14.20;92.20;;;;;;5071753;28;20391;-82
2021/08/02 06:04:24;;;;;;;8.95;4.40;;;14.20;92.60;;;;;;5071628;28;20376;-83
2021/08/02 06:06:51;;;;;;;11.40;4.40;;;14.20;92.90;;;;;;5071670;28;20868;-81
2021/08/02 06:09:16;;;;;;;10.15;4.25;;;14.20;92.70;;;;;;5071228;28;20830;-81
2021/08/02 06:11:42;;;;;;;8.57;4.03;;;14.30;92.30;;;;;;5086976;28;20474;-80
2021/08/02 06:14:07;;;;;;;16.17;4.35;;;14.30;92.50;;;;;;5053448;28;20395;-80
2021/08/02 06:16:33;;;;;;;12.73;4.43;;;14.30;92.50;;;;;;5087193;28;20376;-80
2021/08/02 06:18:58;;;;;;;11.70;4.50;;;14.30;92.70;;;;;;5071415;28;20723;-82
2021/08/02 06:21:24;;;;;;;12.10;4.55;;;14.20;93.20;;;;;;5071395;28;20382;-80
2021/08/02 06:23:49;;;;;;;11.93;4.80;;;14.20;93.20;;;;;;5071350;28;20748;-80
2021/08/02 06:26:15;;;;;;;13.47;4.47;;;14.30;93.00;;;;;;5071076;28;20430;-80
2021/08/02 06:28:40;;;;;;;12.13;4.55;;;14.40;93.00;;;;;;5071203;28;20429;-82
2021/08/02 06:31:06;;;;;;;10.07;4.53;;;14.30;92.60;;;;;;5053100;28;20406;-80
2021/08/02 06:33:31;;;;;;;13.13;4.40;;;14.20;93.10;;;;;;5071195;28;20391;-82
2021/08/02 06:35:57;;;;;;;11.23;4.78;;;14.30;93.10;;;;;;5053269;28;20429;-80
2021/08/02 06:38:22;;;;;;;10.93;4.20;;;14.10;92.70;;;;;;5086740;28;20427;-80
2021/08/02 06:40:48;;;;;;;10.33;4.03;;;14.20;92.80;;;;;;5071143;28;20763;-79
2021/08/02 06:43:14;;;;;;;7.53;3.92;;;14.30;92.50;;;;;;5053222;28;20392;-79
2021/08/02 06:45:42;;;;;;;10.20;4.23;;;14.40;92.50;;;;;;5071008;28;20372;-79
2021/08/02 06:48:08;;;;;;;8.50;3.15;;;14.40;92.50;;;;;;5071219;28;20909;-79
2021/08/02 06:50:33;;;;;;;8.27;3.55;;;14.30;92.50;;;;;;5070703;28;20376;-79
2021/08/02 06:52:59;;;;;;;7.78;3.28;;;14.30;92.60;;;;;;5070897;28;20407;-81
2021/08/02 06:55:25;;;;;;;10.30;3.10;;;14.30;92.70;;;;;;5070826;28;20726;-78
2021/08/02 06:57:50;;;;;;;10.07;3.90;;;14.20;92.30;;;;;;5071060;28;20372;-79
2021/08/02 07:00:16;;;;;;;11.70;3.67;;;14.30;92.10;;;;;;5070990;28;20379;-78
2021/08/02 07:02:43;;;;;;;9.07;3.45;;;14.10;91.20;;;;;;5071077;28;20445;-79
2021/08/02 07:05:09;;;;;;;8.40;3.40;;;14.10;92.20;;;;;;5070924;28;20841;-78
2021/08/02 07:07:34;;;;;;;8.30;3.25;;;14.20;92.30;;;;;;5086507;28;20376;-79
2021/08/02 07:10:00;;;;;;;10.97;3.83;;;14.20;91.80;;;;;;5070701;28;20832;-78
2021/08/02 07:12:25;;;;;;;8.70;3.60;;;14.10;92.10;;;;;;5071027;28;20875;-82
2021/08/02 07:14:51;;;;;;;12.57;3.97;;;14.30;92.10;;;;;;5086109;28;20823;-78
2021/08/02 07:17:17;;;;;;;13.27;3.70;;;14.30;91.60;;;;;;5086115;28;20462;-78
2021/08/02 07:19:42;;;;;;;9.43;3.77;;;14.20;91.70;;;;;;5070762;28;20398;-78
2021/08/02 07:22:08;;;;;;;14.33;3.63;;;14.30;91.50;;;;;;5074505;28;20848;-80
2021/08/02 07:24:33;;;;;;;9.88;2.90;;;14.30;92.00;;;;;;5074658;28;20407;-80
2021/08/02 07:26:59;;;;;;;11.10;3.33;;;14.30;90.90;;;;;;5056683;28;20395;-79
2021/08/02 07:29:24;;;;;;;7.20;2.50;;;14.50;90.90;;;;;;5090141;28;20388;-78
2021/08/02 07:31:50;;;;;;;8.07;2.75;;;14.60;89.60;;;;;;5056468;28;20414;-80
2021/08/02 07:34:15;;;;;;;11.03;2.97;;;14.50;90.10;;;;;;5074443;28;20782;-81
2021/08/02 07:36:41;;;;;;;7.60;2.40;;;14.60;91.00;;;;;;5074666;28;20371;-80
2021/08/02 07:39:07;;;;;;;8.32;2.35;;;14.60;89.70;;;;;;5074517;28;20423;-78
2021/08/02 07:41:32;;;;;;;7.77;2.13;;;14.40;90.30;;;;;;5074026;28;20376;-81
2021/08/02 07:43:59;;;;;;;6.40;2.00;;;14.30;89.70;;;;;;5089833;28;20383;-81
2021/08/02 07:46:25;;;;;;;5.43;2.30;;;14.30;89.30;;;;;;5089812;28;20379;-80
2021/08/02 07:48:52;;;;;;;8.17;2.33;;;14.50;89.80;;;;;;5089852;28;20376;-82
2021/08/02 07:51:18;;;;;;;7.28;2.67;;;14.30;90.30;;;;;;5089684;28;20403;-80
2021/08/02 07:53:44;;;;;;;7.18;2.55;;;14.30;90.00;;;;;;5089732;28;20872;-83
2021/08/02 07:56:10;;;;;;;9.55;2.60;;;14.60;89.90;;;;;;5074002;28;20391;-84
2021/08/02 07:58:35;;;;;;;10.80;2.90;;;14.70;90.70;;;;;;5089743;28;20763;-80
2021/08/02 08:01:01;;;;;;;7.50;3.28;;;14.70;90.60;;;;;;5073970;28;20909;-81
2021/08/02 08:03:26;;;;;;;8.43;2.83;;;14.60;89.20;;;;;;5089586;28;20380;-80
2021/08/02 08:05:52;;;;;;;6.60;2.50;;;14.40;89.60;;;;;;5073791;28;20890;-81
2021/08/02 08:08:20;;;;;;;6.80;2.63;;;14.40;87.70;;;;;;5073882;28;20378;-81
2021/08/02 08:10:45;;;;;;;7.47;2.60;;;14.40;89.20;;;;;;5073760;28;20406;-81
2021/08/02 08:13:11;;;;;;;10.07;3.42;;;14.60;89.30;;;;;;5073493;28;20383;-81
2021/08/02 08:15:36;;;;;;;11.70;2.37;;;14.50;89.10;;;;;;5055806;28;20383;-82
2021/08/02 08:18:02;;;;;;;7.73;2.60;;;14.50;89.20;;;;;;5089363;28;20819;-81
2021/08/02 08:20:27;;;;;;;9.50;2.50;;;14.40;89.00;;;;;;5073562;28;20372;-82
2021/08/02 08:22:54;;;;;;;4.50;1.47;;;14.30;86.90;;;;;;5055405;28;20771;-81
2021/08/02 08:25:20;;;;;;;8.20;2.97;;;14.40;86.80;;;;;;5073500;28;20376;-81
2021/08/02 08:27:45;;;;;;;4.07;1.90;;;14.40;87.30;;;;;;5073573;28;20457;-82
2021/08/02 08:30:13;;;;;;;6.80;2.08;;;14.40;86.30;;;;;;5073443;28;20418;-81
2021/08/02 08:32:39;;;;;;;6.47;2.08;;;14.60;87.20;;;;;;5055297;28;20411;-81
2021/08/02 08:35:05;;;;;;;11.77;2.40;;;14.70;88.10;;;;;;5073329;28;20719;-81
2021/08/02 08:37:31;;;;;;;5.38;1.80;;;14.70;87.80;;;;;;5072988;28;20387;-82
2021/08/02 08:39:57;;;;;;;9.10;2.63;;;14.70;87.10;;;;;;5073295;28;20451;-82
2021/08/02 08:42:22;;;;;;;8.95;2.10;;;14.70;88.10;;;;;;5073237;28;20501;-81
2021/08/02 08:44:48;;;;;;;4.03;1.77;;;14.70;88.70;;;;;;5088766;28;20384;-81
2021/08/02 08:47:13;;;;;;;5.63;2.00;;;14.70;87.40;;;;;;5055219;28;20756;-81
2021/08/02 08:49:40;;;;;;;5.50;2.33;;;14.80;87.70;;;;;;5073147;28;20917;-84
2021/08/02 08:52:06;;;;;;;4.95;1.80;;;14.80;87.20;;;;;;5072977;28;20399;-81
2021/08/02 08:54:32;;;;;;;5.40;2.10;;;14.80;87.40;;;;;;5088636;28;20392;-81
2021/08/02 08:56:59;;;;;;;4.75;2.13;;;14.90;86.90;;;;;;5072720;28;20771;-80
2021/08/02 08:59:24;;;;;;;5.87;2.37;;;15.00;83.50;;;;;;5072980;28;20380;-81
2021/08/02 09:02:01;;;;;;;5.40;2.20;;;15.00;87.10;;;;;;5088455;28;20446;-80
2021/08/02 09:04:29;;;;;;;6.18;2.22;;;14.90;85.50;;;;;;5073053;28;20874;-81
2021/08/02 09:06:58;;;;;;;6.43;2.73;;;15.00;87.10;;;;;;5054721;28;20384;-81
2021/08/02 09:09:31;;;;;;;9.68;1.85;;;15.00;87.80;;;;;;5072732;28;20445;-81
2021/08/02 09:12:08;;;;;;;6.78;1.75;;;14.90;86.50;;;;;;5072722;28;20890;-80
2021/08/02 09:14:34;;;;;;;7.07;2.00;;;14.90;85.40;;;;;;5072818;28;20463;-81
2021/08/02 09:17:00;;;;;;;11.40;2.20;;;15.00;86.20;;;;;;5088087;28;20470;-82
2021/08/02 09:19:38;;;;;;;8.95;2.83;;;15.30;86.20;;;;;;5072635;28;20372;-81
2021/08/02 09:22:04;;;;;;;7.60;2.60;;;15.30;86.10;;;;;;5072477;28;20647;-81
2021/08/02 09:24:31;;;;;;;4.60;2.50;;;15.40;84.60;;;;;;5054664;28;20449;-82
2021/08/02 09:26:56;;;;;;;7.18;2.35;;;15.40;83.60;;;;;;5087991;28;20852;-81
2021/08/02 09:29:33;;;;;;;7.72;3.08;;;15.30;84.30;;;;;;5072740;28;20392;-81
2021/08/02 09:32:00;;;;;;;4.95;2.47;;;15.40;84.40;;;;;;5087901;28;20448;-82
2021/08/02 09:34:26;;;;;;;7.67;3.33;;;15.20;84.60;;;;;;5072304;28;20429;-83
2021/08/02 09:36:57;;;;;;;9.32;2.88;;;15.30;85.60;;;;;;5072188;28;20441;-83
2021/08/02 09:39:28;;;;;;;11.27;2.70;;;15.40;84.50;;;;;;5054204;28;20395;-82
2021/08/02 09:42:06;;;;;;;7.47;2.90;;;15.50;85.10;;;;;;5054195;28;20735;-84
2021/08/02 09:44:31;;;;;;;7.85;2.78;;;15.80;85.90;;;;;;5071650;28;20450;-81
2021/08/02 09:47:00;;;;;;;4.60;2.35;;;15.70;83.70;;;;;;5087652;28;20420;-79
2021/08/02 09:49:27;;;;;;;6.97;2.40;;;15.70;81.50;;;;;;5072031;28;20415;-80
2021/08/02 09:51:53;;;;;;;4.03;2.05;;;15.80;83.20;;;;;;5053768;28;20481;-84
2021/08/02 09:54:27;;;;;;;6.32;1.50;;;15.70;80.40;;;;;;5072239;28;20390;-81
2021/08/02 09:56:53;;;;;;;8.53;1.90;;;15.50;79.60;;;;;;5071878;28;20422;-83
2021/08/02 09:59:19;;;;;;;8.17;2.37;;;15.70;79.30;;;;;;5071965;28;20806;-83
2021/08/02 10:01:50;;;;;;;7.03;3.85;;;15.80;80.80;;;;;;5071848;28;20387;-84
2021/08/02 10:04:16;;;;;;;8.82;3.78;;;15.80;81.70;;;;;;5071914;28;20368;-81
2021/08/02 10:06:42;;;;;;;7.85;2.78;;;16.10;81.80;;;;;;5071736;28;20852;-81
2021/08/02 10:09:10;;;;;;;7.95;2.92;;;16.00;79.00;;;;;;5071703;28;20405;-81
2021/08/02 10:11:35;;;;;;;8.75;3.13;;;15.90;79.70;;;;;;5053572;28;20442;-81
2021/08/02 10:14:01;;;;;;;5.13;3.38;;;15.90;78.70;;;;;;5053933;28;20423;-82
2021/08/02 10:16:29;;;;;;;9.65;4.28;;;16.00;80.90;;;;;;5071752;28;20487;-83
2021/08/02 10:19:06;;;;;;;8.38;4.13;;;16.10;80.70;;;;;;5071846;28;20740;-80
2021/08/02 10:21:43;;;;;;;6.90;4.03;;;16.20;82.00;;;;;;5053615;28;20938;-80
2021/08/02 10:24:13;;;;;;;6.72;3.40;;;16.40;80.20;;;;;;5071792;28;20380;-80
2021/08/02 10:26:40;;;;;;;6.25;3.05;;;16.40;77.30;;;;;;5071709;28;20368;-84
2021/08/02 10:29:09;;;;;;;6.40;2.88;;;16.40;80.00;;;;;;5071503;28;20372;-81
2021/08/02 10:31:42;;;;;;;7.53;2.90;;;16.30;77.20;;;;;;5053477;28;20439;-80
2021/08/02 10:34:23;;;;;;;5.97;2.28;;;16.10;79.30;;;;;;5086986;28;20419;-80
2021/08/02 10:37:15;;;;;;;6.00;1.80;;;16.30;78.10;;;;;;5070919;28;20925;-81
2021/08/02 10:39:40;;;;;;;4.47;1.55;;;16.40;74.40;;;;;;5067346;28;20395;-82
2021/08/02 10:42:12;;;;;;;5.45;1.88;;;16.50;76.00;;;;;;5086807;28;20464;-81
2021/08/02 10:44:38;;;;;;;6.47;1.80;;;16.70;77.50;;;;;;5086851;28;20411;-80
2021/08/02 10:47:09;;;;;;;3.90;2.08;;;16.80;77.30;;;;;;5071137;28;20434;-82
2021/08/02 10:49:34;;;;;;;7.30;2.47;;;17.10;79.10;;;;;;5071166;28;20493;-80
2021/08/02 10:52:01;;;;;;;5.07;2.53;;;17.10;73.40;;;;;;5052842;28;20490;-79
2021/08/02 10:54:38;;;;;;;4.90;2.80;;;17.20;76.40;;;;;;5070486;28;20841;-80
2021/08/02 10:57:12;;;;;;;8.48;2.90;;;17.30;74.60;;;;;;5086281;28;20469;-81
2021/08/02 10:59:38;;;;;;;12.50;3.90;;;17.20;73.00;;;;;;5086532;28;20472;-79
2021/08/02 11:02:09;;;;;;;6.55;3.08;;;17.20;76.10;;;;;;5071297;28;20831;-82
2021/08/02 11:04:36;;;;;;;8.38;3.55;;;17.60;74.70;;;;;;5052814;28;20407;-80
2021/08/02 11:07:02;;;;;;;8.10;3.50;;;17.90;74.70;;;;;;5070718;28;20866;-80
2021/08/02 11:09:32;;;;;;;9.40;3.80;;;17.60;72.90;;;;;;5070766;28;20779;-80
2021/08/02 11:12:13;;;;;;;7.72;3.40;;;17.80;74.40;;;;;;5052643;28;20461;-84
2021/08/02 11:14:52;;;;;;;5.30;3.65;;;17.80;71.90;;;;;;5070751;28;20437;-80
2021/08/02 11:17:20;;;;;;;5.65;2.90;;;18.00;77.10;;;;;;5070684;28;20387;-81
2021/08/02 11:19:45;;;;;;;6.88;2.95;;;18.00;70.40;;;;;;5052625;28;20690;-80
2021/08/02 11:22:12;;;;;;;9.32;3.03;;;18.10;72.60;;;;;;5052522;28;20433;-80
2021/08/02 11:24:51;;;;;;;7.60;2.38;;;18.00;72.10;;;;;;5070384;28;20372;-80
2021/08/02 11:27:17;;;;;;;4.13;2.35;;;17.70;68.40;;;;;;5086120;28;20383;-82
2021/08/02 11:29:49;;;;;;;5.60;2.10;;;17.70;74.00;;;;;;5070518;28;20376;-81
2021/08/02 11:32:16;;;;;;;8.43;2.80;;;17.80;72.60;;;;;;5070434;28;20774;-81
2021/08/02 11:34:44;;;;;;;7.70;2.35;;;17.90;70.30;;;;;;5085984;28;20395;-80
2021/08/02 11:37:14;;;;;;;4.88;2.33;;;18.10;73.20;;;;;;5052260;28;20424;-80
2021/08/02 11:39:42;;;;;;;5.95;2.03;;;18.10;73.70;;;;;;5052563;28;20383;-80
2021/08/02 11:42:10;;;;;;;8.00;2.20;;;18.30;74.20;;;;;;5052447;28;20403;-80
2021/08/02 11:44:45;;;;;;;7.17;2.07;;;18.20;71.50;;;;;;5085894;28;20398;-81
2021/08/02 11:47:16;;;;;;;5.82;2.60;;;18.00;73.60;;;;;;5070318;28;20376;-81
2021/08/02 11:49:42;;;;;;;5.70;1.80;;;18.00;73.70;;;;;;5070356;28;20379;-81
2021/08/02 11:52:08;;;;;;;6.80;1.90;;;18.00;73.30;;;;;;5085639;28;20403;-81
2021/08/02 11:54:34;;;;;;;6.00;2.10;;;18.00;72.90;;;;;;5070305;28;20418;-81
2021/08/02 11:57:00;;;;;;;6.50;2.00;;;18.20;73.60;;;;;;5070389;28;20380;-81
2021/08/02 11:59:29;;;;;;;3.37;1.83;;;18.10;72.10;;;;;;5069992;28;20378;-80
2021/08/02 12:01:57;;;;;;;5.53;2.03;;;18.00;71.60;;;;;;5069880;28;20388;-81
2021/08/02 12:04:23;;;;;;;5.88;2.20;;;18.00;73.10;;;;;;5070230;28;20375;-81
2021/08/02 12:06:57;;;;;;;5.85;1.90;;;17.90;73.00;;;;;;5053595;28;20395;-82
2021/08/02 12:09:36;;;;;;;5.80;1.85;;;17.80;70.50;;;;;;5073901;28;20712;-81
2021/08/02 12:12:05;;;;;;;2.95;1.90;;;17.90;73.10;;;;;;5055388;28;20399;-80
2021/08/02 12:14:32;;;;;;;5.37;2.43;;;17.90;70.80;;;;;;5073789;28;20466;-82
2021/08/02 12:17:07;;;;;;;6.95;1.98;;;17.90;72.90;;;;;;5055766;28;20886;-81
2021/08/02 12:19:52;;;;;;;4.45;2.15;;;17.90;71.60;;;;;;5073201;28;20395;-82
2021/08/02 12:22:22;;;;;;;10.43;2.40;;;18.10;73.80;;;;;;5073556;28;20542;-82
2021/08/02 12:24:59;;;;;;;5.75;2.03;;;18.10;73.30;;;;;;5073852;28;20434;-81
2021/08/02 12:27:26;;;;;;;4.20;2.08;;;18.30;69.60;;;;;;5073504;28;20411;-82
2021/08/02 12:30:04;;;;;;;4.18;2.10;;;18.20;72.80;;;;;;5073510;28;20702;-81
2021/08/02 12:32:38;;;;;;;5.88;1.90;;;18.60;74.30;;;;;;5073256;28;20399;-79
2021/08/02 12:35:07;;;;;;;7.72;2.35;;;18.70;70.70;;;;;;5073136;28;20837;-81
2021/08/02 12:37:32;;;;;;;5.60;2.40;;;18.50;72.60;;;;;;5073219;28;20533;-83
2021/08/02 12:39:59;;;;;;;4.40;2.07;;;18.60;73.70;;;;;;5073418;28;20721;-81
2021/08/02 12:42:27;;;;;;;6.78;2.63;;;18.70;72.70;;;;;;5055213;28;20391;-81
2021/08/02 12:44:53;;;;;;;6.00;2.20;;;18.60;70.00;;;;;;5088779;28;20436;-80
2021/08/02 12:47:20;;;;;;;4.43;2.50;;;18.60;72.40;;;;;;5073165;28;20372;-80
2021/08/02 12:49:46;;;;;;;6.63;2.40;;;18.60;71.50;;;;;;5055171;28;20391;-81